createdAt,value
2023-10-09T00:01:52.614Z,7.47
2023-10-09T00:07:16.798Z,9.73
2023-10-09T00:12:40.106Z,6.17
2023-10-09T00:18:03.159Z,9.68
2023-10-09T00:23:27.090Z,10.38
2023-10-09T00:28:51.587Z,12.15
2023-10-09T00:34:15.537Z,9.85
2023-10-09T00:39:38.385Z,9.13
2023-10-09T00:45:06.373Z,9.28
2023-10-09T00:50:31.471Z,9.98
2023-10-09T00:55:56.617Z,8.90
2023-10-09T01:01:19.005Z,9.93
2023-10-09T01:12:51.119Z,9.20
2023-10-09T01:18:14.565Z,13.13
2023-10-09T01:23:38.696Z,12.97
2023-10-09T01:29:01.529Z,10.63
2023-10-09T01:34:42.294Z,11.97
2023-10-09T01:45:53.465Z,10.67
2023-10-09T01:51:18.656Z,8.77
2023-10-09T01:56:42.820Z,8.30
2023-10-09T02:02:06.877Z,15.17
2023-10-09T02:07:30.468Z,11.88
2023-10-09T02:13:01.612Z,10.77
2023-10-09T02:59:48.132Z,11.90
2023-10-09T03:03:42.613Z,7.77
2023-10-09T03:09:06.682Z,11.68
2023-10-09T03:14:30.480Z,9.53
2023-10-09T03:19:53.360Z,9.20
2023-10-09T03:25:17.901Z,7.78
2023-10-09T03:30:41.805Z,11.25
2023-10-09T03:36:05.962Z,10.68
2023-10-09T03:41:28.434Z,12.50
2023-10-09T03:46:52.677Z,9.33
2023-10-09T03:52:17.356Z,14.00
2023-10-09T03:57:40.554Z,11.88
2023-10-09T04:03:05.228Z,10.98
2023-10-09T04:08:31.402Z,9.95
2023-10-09T04:13:58.159Z,7.95
2023-10-09T04:19:22.771Z,10.20
2023-10-09T04:24:45.917Z,8.03
2023-10-09T04:30:08.804Z,8.03
2023-10-09T04:35:32.114Z,10.08
2023-10-09T04:40:56.068Z,8.58
2023-10-09T04:46:20.414Z,9.78
2023-10-09T04:51:44.425Z,10.70
2023-10-09T04:57:08.611Z,10.40
2023-10-09T05:02:33.156Z,9.18
2023-10-09T05:07:58.367Z,8.05
2023-10-09T05:13:22.311Z,11.33
2023-10-09T05:18:46.506Z,6.78
2023-10-09T05:24:16.639Z,7.92
2023-10-09T05:29:41.660Z,7.72
2023-10-09T05:35:04.374Z,8.93
2023-10-09T05:40:28.955Z,8.53
2023-10-09T05:46:10.878Z,6.90
2023-10-09T05:57:27.443Z,11.63
2023-10-09T06:03:02.658Z,9.60
2023-10-09T06:08:42.170Z,11.77
2023-10-09T06:14:10.531Z,10.47
2023-10-09T06:19:35.794Z,11.55
2023-10-09T06:25:00.564Z,11.50
2023-10-09T06:30:27.940Z,12.80
2023-10-09T06:35:57.294Z,14.67
2023-10-09T06:41:27.913Z,13.87
2023-10-09T06:46:51.864Z,25.40
2023-10-09T06:52:17.210Z,20.65
2023-10-09T06:57:47.636Z,13.63
2023-10-09T07:03:11.965Z,14.63
2023-10-09T07:08:36.522Z,15.35
2023-10-09T07:13:59.768Z,10.32
2023-10-09T07:25:00.439Z,17.03
2023-10-09T07:30:30.807Z,14.98
2023-10-09T07:35:57.667Z,14.53
2023-10-09T07:41:20.383Z,14.57
2023-10-09T07:46:56.916Z,13.10
2023-10-09T07:52:19.708Z,15.55
2023-10-09T07:57:44.186Z,68.62
2023-10-09T08:03:08.428Z,37.75
2023-10-09T08:08:38.429Z,16.20
2023-10-09T08:13:57.423Z,12.65
2023-10-09T08:19:35.558Z,15.13
2023-10-09T08:24:58.364Z,17.00
2023-10-09T08:30:27.746Z,16.10
2023-10-09T08:35:52.420Z,13.87
2023-10-09T08:41:24.325Z,14.68
2023-10-09T08:46:48.128Z,13.45
2023-10-09T08:52:12.663Z,13.22
2023-10-09T08:57:35.831Z,19.73
2023-10-09T09:02:58.508Z,19.25
2023-10-09T09:08:30.632Z,20.40
2023-10-09T09:14:23.718Z,13.90
2023-10-09T09:19:49.545Z,11.85
2023-10-09T09:25:18.695Z,11.73
2023-10-09T09:30:48.266Z,11.78
2023-10-09T09:36:18.828Z,15.17
2023-10-09T09:41:44.345Z,12.30
2023-10-09T09:47:08.969Z,12.47
2023-10-09T09:52:33.093Z,12.13
2023-10-09T09:57:58.769Z,12.47
2023-10-09T10:03:35.122Z,13.97
2023-10-09T10:08:57.594Z,14.23
2023-10-09T10:14:24.968Z,16.48
2023-10-09T10:20:20.406Z,18.55
2023-10-09T10:25:50.793Z,16.10
2023-10-09T10:36:46.492Z,18.77
2023-10-09T10:42:16.916Z,13.08
2023-10-09T10:47:42.922Z,14.28
2023-10-09T10:53:21.187Z,11.40
2023-10-09T10:58:51.567Z,8.93
2023-10-09T11:04:34.293Z,8.67
2023-10-09T11:10:13.264Z,7.05
2023-10-09T11:21:22.694Z,7.37
2023-10-09T11:26:47.891Z,7.03
2023-10-09T11:32:27.417Z,9.30
2023-10-09T11:37:50.546Z,8.40
2023-10-09T11:43:15.834Z,8.50
2023-10-09T11:48:41.313Z,5.83
2023-10-09T11:54:04.924Z,10.30
2023-10-09T11:59:28.809Z,9.10
2023-10-09T12:04:51.281Z,6.60
2023-10-09T12:10:16.003Z,12.57
2023-10-09T12:15:39.428Z,6.47
2023-10-09T12:26:36.715Z,6.60
2023-10-09T12:32:02.830Z,6.87
2023-10-09T12:37:25.259Z,5.67
2023-10-09T12:42:49.552Z,7.55
2023-10-09T12:48:14.085Z,4.47
2023-10-09T12:53:38.072Z,5.67
2023-10-09T12:59:02.688Z,4.85
2023-10-09T13:04:31.002Z,6.50
2023-10-09T13:15:34.431Z,3.90
2023-10-09T13:20:57.047Z,4.90
2023-10-09T13:26:32.854Z,3.58
2023-10-09T13:31:55.554Z,5.10
2023-10-09T13:37:20.533Z,6.08
2023-10-09T13:42:44.005Z,4.92
2023-10-09T13:48:10.004Z,5.40
2023-10-09T13:53:32.583Z,5.10
2023-10-09T13:58:56.924Z,7.30
2023-10-09T14:04:20.799Z,4.10
2023-10-09T14:09:48.564Z,5.08
2023-10-09T14:15:13.026Z,7.50
2023-10-09T14:20:36.253Z,4.58
2023-10-09T14:26:03.389Z,3.65
2023-10-09T14:31:29.770Z,4.53
2023-10-09T14:36:52.375Z,4.55
2023-10-09T14:42:16.640Z,4.83
2023-10-09T14:47:39.341Z,5.70
2023-10-09T14:53:02.677Z,4.67
2023-10-09T14:58:26.985Z,3.87
2023-10-09T15:03:51.647Z,4.55
2023-10-09T15:09:16.507Z,4.72
2023-10-09T15:14:42.407Z,3.15
2023-10-09T15:20:06.606Z,4.70
2023-10-09T15:25:56.728Z,8.53
2023-10-09T15:31:22.464Z,4.73
2023-10-09T15:36:44.935Z,3.45
2023-10-09T15:42:26.403Z,4.20
2023-10-09T15:53:26.979Z,2.90
2023-10-09T15:58:50.209Z,2.92
2023-10-09T16:04:12.898Z,2.55
2023-10-09T16:09:37.228Z,3.85
2023-10-09T16:15:00.894Z,5.22
2023-10-09T16:20:25.734Z,3.75
2023-10-09T16:25:48.533Z,23.80
2023-10-09T16:36:46.723Z,4.73
2023-10-09T16:42:11.083Z,4.20
2023-10-09T16:47:33.536Z,5.10
2023-10-09T16:52:57.325Z,6.53
2023-10-09T16:58:21.046Z,5.67
2023-10-09T17:03:48.112Z,5.05
2023-10-09T17:09:12.277Z,5.87
2023-10-09T17:14:35.924Z,21.20
2023-10-09T17:19:59.703Z,8.40
2023-10-09T17:25:24.460Z,7.35
2023-10-09T17:30:48.756Z,7.15
2023-10-09T17:36:13.421Z,10.13
2023-10-09T17:41:36.655Z,9.55
2023-10-09T17:47:00.795Z,7.47
2023-10-09T17:52:24.502Z,8.10
2023-10-09T17:57:49.767Z,8.20
2023-10-09T18:08:45.055Z,9.17
2023-10-09T18:14:07.968Z,8.28
2023-10-09T18:19:30.668Z,9.10
2023-10-09T18:24:53.153Z,11.22
2023-10-09T18:30:17.724Z,7.60
2023-10-09T18:35:41.878Z,24.37
2023-10-09T18:41:06.553Z,11.20
2023-10-09T18:46:33.423Z,11.10
2023-10-09T18:51:59.895Z,11.88
2023-10-09T18:57:25.309Z,13.33
2023-10-09T19:02:48.428Z,16.65
2023-10-09T19:08:11.082Z,19.05
2023-10-09T19:13:35.944Z,16.48
2023-10-09T19:19:00.452Z,16.00
2023-10-09T19:24:22.842Z,19.40
2023-10-09T19:29:45.162Z,106.12
2023-10-09T19:35:08.268Z,31.40
2023-10-09T19:40:34.168Z,29.65
2023-10-09T19:45:56.720Z,22.42
2023-10-09T19:51:20.523Z,18.98
2023-10-09T19:56:44.064Z,21.48
2023-10-09T20:02:06.556Z,21.42
2023-10-09T20:07:29.747Z,18.87
2023-10-09T20:12:53.488Z,22.90
2023-10-09T20:18:16.477Z,25.77
2023-10-09T20:23:39.858Z,20.37
2023-10-09T20:29:03.517Z,27.50
2023-10-09T20:34:25.943Z,28.23
2023-10-09T20:39:50.146Z,23.47
2023-10-09T20:45:12.715Z,27.10
2023-10-09T20:50:37.532Z,25.35
2023-10-09T20:56:02.010Z,30.25
2023-10-09T21:01:27.417Z,24.45
2023-10-09T21:06:50.827Z,25.93
2023-10-09T21:12:14.990Z,26.62
2023-10-09T21:17:38.861Z,25.68
2023-10-09T21:23:04.813Z,24.95
2023-10-09T21:28:27.204Z,31.10
2023-10-09T21:39:26.244Z,33.13
2023-10-09T21:44:49.186Z,29.80
2023-10-09T21:50:13.711Z,30.63
2023-10-09T21:55:37.458Z,31.97
2023-10-09T22:01:01.448Z,30.90
2023-10-09T22:11:57.381Z,23.80
2023-10-09T22:17:22.539Z,21.77
2023-10-09T22:28:19.048Z,23.13
2023-10-09T22:39:25.670Z,22.40
2023-10-09T22:44:58.530Z,20.30
2023-10-09T22:50:26.057Z,25.77
2023-10-09T22:55:50.394Z,43.23
2023-10-09T23:01:19.600Z,53.13
2023-10-09T23:06:48.245Z,39.80
2023-10-09T23:12:11.793Z,31.10
2023-10-09T23:17:47.678Z,24.40
2023-10-09T23:23:11.752Z,22.35
2023-10-09T23:28:40.409Z,24.17
2023-10-09T23:34:05.135Z,23.00
2023-10-09T23:45:08.819Z,25.20
2023-10-09T23:50:33.105Z,23.33
2023-10-09T23:55:59.926Z,20.30
